Time;durP1;ratioP1;P1;durP2;ratioP2;P2;SDS_P1;SDS_P2;PMS_P1;PMS_P2;Temp;Humidity;BMP_temperature;BMP_pressure;BME280_temperature;BME280_humidity;BME280_pressure;Samples;Min_cycle;Max_cycle;Signal;HPM_P1;HPM_P2
2021/11/02 00:00:28;;;;;;;119.67;58.47;;;;;;;;;;4433367;32;20268;-53
2021/11/02 00:02:53;;;;;;;119.87;60.13;;;;;;;;;;4433160;32;20317;-53
2021/11/02 00:05:19;;;;;;;99.47;50.60;;;;;;;;;;4433666;32;20348;-54
2021/11/02 00:07:47;;;;;;;104.43;49.60;;;;;;;;;;4432138;32;20281;-54
2021/11/02 00:10:13;;;;;;;99.50;49.77;;;;;;;;;;4433045;32;20246;-53
2021/11/02 00:12:39;;;;;;;99.77;50.23;;;;;;;;;;4433078;32;20434;-53
2021/11/02 00:15:05;;;;;;;95.77;46.23;;;;;;;;;;4432999;32;20318;-54
2021/11/02 00:17:33;;;;;;;93.20;47.43;;;;;;;;;;4433295;32;20280;-54
2021/11/02 00:20:01;;;;;;;96.93;51.20;;;;;;;;;;4433141;32;20355;-55
2021/11/02 00:22:28;;;;;;;88.93;47.30;;;;;;;;;;4432253;32;20558;-53
2021/11/02 00:27:26;;;;;;;88.10;45.67;;;;;;;;;;4433130;32;20367;-53
2021/11/02 00:29:53;;;;;;;79.57;40.17;;;;;;;;;;4435341;32;20261;-54
2021/11/02 00:32:19;;;;;;;72.20;32.83;;;;;;;;;;4436298;32;20380;-53
2021/11/02 00:34:44;;;;;;;76.23;35.77;;;;;;;;;;4436306;32;20292;-53
2021/11/02 00:37:10;;;;;;;76.93;40.07;;;;;;;;;;4436413;32;20637;-55
2021/11/02 00:39:36;;;;;;;89.73;40.43;;;;;;;;;;4436901;32;20359;-54
2021/11/02 00:42:01;;;;;;;84.07;42.50;;;;;;;;;;4436749;32;20237;-54
2021/11/02 00:44:27;;;;;;;94.03;45.87;;;;;;;;;;4437067;32;20272;-54
2021/11/02 00:46:55;;;;;;;89.90;43.27;;;;;;;;;;4436251;32;20311;-53
2021/11/02 00:49:24;;;;;;;92.33;47.40;;;;;;;;;;4436408;32;20212;-54
2021/11/02 00:51:51;;;;;;;103.07;46.33;;;;;;;;;;4436387;32;20315;-52
2021/11/02 00:54:17;;;;;;;113.00;49.03;;;;;;;;;;4436645;32;20557;-54
2021/11/02 00:56:44;;;;;;;96.33;44.60;;;;;;;;;;4434804;32;20272;-53
2021/11/02 00:59:10;;;;;;;84.40;43.13;;;;;;;;;;4436230;32;20228;-53
2021/11/02 01:01:37;;;;;;;90.63;41.20;;;;;;;;;;4436200;32;20301;-53
2021/11/02 01:04:05;;;;;;;89.40;40.90;;;;;;;;;;4436038;32;20583;-54
2021/11/02 01:06:35;;;;;;;82.47;40.73;;;;;;;;;;4436089;32;20296;-53
2021/11/02 01:09:03;;;;;;;69.83;35.73;;;;;;;;;;4434806;32;20256;-53
2021/11/02 01:11:28;;;;;;;65.43;34.10;;;;;;;;;;4436423;32;20420;-53
2021/11/02 01:13:54;;;;;;;79.87;37.37;;;;;;;;;;4436069;32;20307;-53
2021/11/02 01:16:24;;;;;;;76.67;37.97;;;;;;;;;;4435889;32;20241;-53
2021/11/02 01:18:51;;;;;;;79.20;38.57;;;;;;;;;;4436180;32;20273;-53
2021/11/02 01:21:16;;;;;;;76.53;37.37;;;;;;;;;;4436337;32;20253;-56
2021/11/02 01:23:41;;;;;;;76.90;38.23;;;;;;;;;;4432869;32;20283;-54
2021/11/02 01:26:07;;;;;;;83.17;39.70;;;;;;;;;;4434012;32;20598;-54
2021/11/02 01:28:32;;;;;;;83.10;39.60;;;;;;;;;;4436170;32;20612;-53
2021/11/02 01:30:58;;;;;;;80.80;38.37;;;;;;;;;;4435842;32;20295;-52
2021/11/02 01:33:24;;;;;;;81.50;40.77;;;;;;;;;;4435639;32;20789;-53
2021/11/02 01:35:50;;;;;;;96.47;42.07;;;;;;;;;;4435816;32;20292;-53
2021/11/02 01:38:18;;;;;;;78.87;41.20;;;;;;;;;;4434610;32;20329;-54
2021/11/02 01:40:44;;;;;;;78.73;40.90;;;;;;;;;;4434875;32;20264;-53
2021/11/02 01:43:11;;;;;;;75.53;41.87;;;;;;;;;;4435654;32;20550;-53
2021/11/02 01:45:37;;;;;;;79.77;37.90;;;;;;;;;;4434407;32;20229;-54
2021/11/02 01:48:02;;;;;;;72.50;37.07;;;;;;;;;;4435350;32;20236;-53
2021/11/02 01:50:28;;;;;;;59.00;31.47;;;;;;;;;;4435715;32;20314;-53
2021/11/02 01:52:54;;;;;;;63.40;32.77;;;;;;;;;;4435328;32;20751;-54
2021/11/02 01:55:20;;;;;;;59.67;30.97;;;;;;;;;;4434433;32;20284;-55
2021/11/02 01:57:46;;;;;;;66.30;31.20;;;;;;;;;;4435651;32;20255;-53
2021/11/02 02:00:14;;;;;;;60.53;31.07;;;;;;;;;;4435185;32;20376;-54
2021/11/02 02:02:58;;;;;;;63.50;33.83;;;;;;;;;;4434890;32;20358;-56
2021/11/02 02:05:49;;;;;;;68.43;32.57;;;;;;;;;;4435923;32;20590;-53
2021/11/02 02:09:05;;;;;;;81.00;39.13;;;;;;;;;;4435443;32;20619;-54
2021/11/02 02:11:55;;;;;;;86.30;36.83;;;;;;;;;;4387177;32;20572;-53
2021/11/02 02:14:33;;;;;;;73.90;38.03;;;;;;;;;;4387206;32;20238;-53
2021/11/02 02:17:01;;;;;;;73.43;38.33;;;;;;;;;;4424871;32;20581;-54
2021/11/02 02:19:37;;;;;;;65.87;35.90;;;;;;;;;;4435577;32;20227;-53
2021/11/02 02:22:22;;;;;;;73.13;38.23;;;;;;;;;;4434851;32;20253;-53
2021/11/02 02:24:56;;;;;;;103.63;47.07;;;;;;;;;;4429917;32;20311;-53
2021/11/02 02:27:42;;;;;;;70.90;39.57;;;;;;;;;;4434811;32;20260;-54
2021/11/02 02:30:12;;;;;;;112.73;56.53;;;;;;;;;;4433848;32;20633;-54
2021/11/02 02:32:45;;;;;;;88.37;42.30;;;;;;;;;;4434603;32;20606;-54
2021/11/02 02:35:13;;;;;;;74.33;40.37;;;;;;;;;;4434847;32;20692;-53
2021/11/02 02:37:42;;;;;;;73.83;39.33;;;;;;;;;;4434625;32;20312;-53
2021/11/02 02:40:09;;;;;;;73.70;37.63;;;;;;;;;;4434486;32;20204;-54
2021/11/02 02:42:37;;;;;;;72.90;38.67;;;;;;;;;;4434698;32;20460;-55
2021/11/02 02:45:03;;;;;;;71.03;37.87;;;;;;;;;;4435053;32;20213;-54
2021/11/02 02:47:30;;;;;;;64.73;35.63;;;;;;;;;;4434516;32;20354;-52
2021/11/02 02:49:58;;;;;;;80.67;37.67;;;;;;;;;;4434583;32;20247;-53
2021/11/02 02:52:25;;;;;;;73.33;40.60;;;;;;;;;;4434303;32;20236;-54
2021/11/02 02:54:51;;;;;;;69.50;35.07;;;;;;;;;;4434888;32;20202;-54
2021/11/02 02:57:22;;;;;;;73.10;38.93;;;;;;;;;;4433220;32;20656;-54
2021/11/02 02:59:50;;;;;;;70.77;39.33;;;;;;;;;;4426892;32;20273;-54
2021/11/02 03:02:18;;;;;;;68.03;36.43;;;;;;;;;;4420114;32;20241;-53
2021/11/02 03:04:47;;;;;;;78.70;40.07;;;;;;;;;;4418857;32;20233;-53
2021/11/02 03:07:14;;;;;;;74.63;38.37;;;;;;;;;;4431791;32;20898;-53
2021/11/02 03:09:44;;;;;;;67.43;35.83;;;;;;;;;;4433015;32;20217;-54
2021/11/02 03:12:12;;;;;;;71.47;39.17;;;;;;;;;;4434196;32;20315;-53
2021/11/02 03:17:52;;;;;;;67.10;35.87;;;;;;;;;;4419012;32;20316;-53
2021/11/02 03:45:10;;;;;;;97.53;47.27;;;;;;;;;;4428259;32;20235;-53
2021/11/02 03:56:15;;;;;;;71.00;39.03;;;;;;;;;;4375900;32;20591;-53
2021/11/02 04:24:08;;;;;;;97.77;53.20;;;;;;;;;;4429828;32;20348;-56
2021/11/02 05:08:15;;;;;;;97.17;50.63;;;;;;;;;;4420164;32;20280;-54
2021/11/02 05:54:32;;;;;;;128.53;73.03;;;;;;;;;;4427351;32;20247;-53
2021/11/02 05:57:11;;;;;;;131.17;73.70;;;;;;;;;;4434758;32;20725;-53
2021/11/02 05:59:40;;;;;;;128.10;70.00;;;;;;;;;;4434825;32;20213;-54
2021/11/02 06:07:31;;;;;;;136.63;80.23;;;;;;;;;;4434464;32;20283;-54
2021/11/02 06:29:30;;;;;;;180.97;93.10;;;;;;;;;;4419460;32;20624;-53
2021/11/02 06:34:48;;;;;;;139.27;76.20;;;;;;;;;;4418996;32;20612;-56
2021/11/02 07:17:18;;;;;;;188.50;105.90;;;;;;;;;;4433251;32;20384;-54
2021/11/02 08:45:56;;;;;;;145.83;82.03;;;;;;;;;;4432890;32;20355;-55
2021/11/02 08:48:26;;;;;;;143.87;85.73;;;;;;;;;;4433092;32;20696;-54
2021/11/02 08:50:53;;;;;;;154.83;91.07;;;;;;;;;;4433752;32;20637;-53
2021/11/02 08:53:20;;;;;;;145.90;86.00;;;;;;;;;;4434736;32;20257;-53
2021/11/02 08:55:45;;;;;;;145.37;86.70;;;;;;;;;;4435584;32;20213;-54
2021/11/02 08:58:11;;;;;;;159.43;94.73;;;;;;;;;;4435661;32;20240;-53
2021/11/02 09:00:39;;;;;;;165.77;97.77;;;;;;;;;;4435726;32;20337;-54
2021/11/02 09:03:16;;;;;;;184.40;103.03;;;;;;;;;;4435733;32;20261;-54
2021/11/02 09:05:42;;;;;;;176.50;104.47;;;;;;;;;;4435822;32;20230;-53
2021/11/02 09:08:11;;;;;;;170.67;102.63;;;;;;;;;;4435452;32;20228;-55
2021/11/02 09:10:40;;;;;;;182.93;108.20;;;;;;;;;;4435444;32;20335;-55
2021/11/02 09:13:09;;;;;;;191.37;110.43;;;;;;;;;;4435268;32;20255;-54
2021/11/02 09:15:37;;;;;;;204.37;113.17;;;;;;;;;;4435429;32;20637;-54
2021/11/02 09:18:08;;;;;;;181.63;101.03;;;;;;;;;;4435599;32;20263;-54
2021/11/02 09:20:34;;;;;;;171.27;97.50;;;;;;;;;;4435366;32;20609;-55
2021/11/02 09:23:00;;;;;;;169.10;100.90;;;;;;;;;;4435105;32;20336;-54
2021/11/02 09:25:26;;;;;;;190.87;105.50;;;;;;;;;;4435072;32;20367;-56
2021/11/02 09:27:52;;;;;;;195.80;112.47;;;;;;;;;;4435300;32;20229;-54
2021/11/02 09:30:19;;;;;;;174.13;103.83;;;;;;;;;;4435768;32;20298;-55
2021/11/02 09:32:47;;;;;;;148.83;82.73;;;;;;;;;;4434965;32;20260;-54
2021/11/02 09:35:14;;;;;;;121.60;71.00;;;;;;;;;;4435191;32;20205;-54
2021/11/02 09:37:48;;;;;;;112.27;68.23;;;;;;;;;;4435161;32;20770;-54
2021/11/02 09:40:17;;;;;;;109.97;66.53;;;;;;;;;;4435275;32;20649;-54
2021/11/02 09:43:15;;;;;;;149.50;84.70;;;;;;;;;;4435027;32;20593;-54
2021/11/02 09:45:44;;;;;;;152.17;86.60;;;;;;;;;;4423417;32;20275;-55
2021/11/02 09:48:40;;;;;;;146.40;83.10;;;;;;;;;;4426063;32;20307;-55
2021/11/02 09:51:30;;;;;;;158.77;93.73;;;;;;;;;;4434778;32;20270;-54
2021/11/02 09:54:33;;;;;;;156.30;88.30;;;;;;;;;;4435718;32;20280;-55
2021/11/02 09:57:25;;;;;;;123.40;74.27;;;;;;;;;;4433474;32;20323;-55
2021/11/02 10:00:00;;;;;;;121.90;74.50;;;;;;;;;;4428724;32;20779;-54
2021/11/02 10:02:33;;;;;;;108.40;68.50;;;;;;;;;;4422067;32;20267;-55
2021/11/02 10:05:16;;;;;;;69.97;40.57;;;;;;;;;;4433438;32;20310;-54
2021/11/02 10:08:05;;;;;;;80.03;48.60;;;;;;;;;;4433018;32;20727;-53
2021/11/02 10:10:47;;;;;;;111.47;68.80;;;;;;;;;;4431713;32;20283;-56
2021/11/02 10:13:15;;;;;;;97.00;59.30;;;;;;;;;;4433094;32;20719;-54
2021/11/02 10:15:59;;;;;;;122.43;71.73;;;;;;;;;;4432998;32;20332;-54
2021/11/02 10:18:43;;;;;;;362.27;195.33;;;;;;;;;;4433178;32;20240;-54
2021/11/02 10:21:36;;;;;;;302.90;166.20;;;;;;;;;;4433766;32;20217;-55
2021/11/02 10:24:32;;;;;;;228.90;128.03;;;;;;;;;;4434126;32;20621;-54
2021/11/02 10:27:00;;;;;;;157.83;89.33;;;;;;;;;;4429128;32;20259;-54
2021/11/02 10:29:34;;;;;;;145.53;82.63;;;;;;;;;;4432211;32;20362;-54
2021/11/02 10:32:26;;;;;;;315.90;186.93;;;;;;;;;;4434453;32;20232;-54
2021/11/02 10:35:11;;;;;;;172.60;100.87;;;;;;;;;;4434403;32;20332;-55
2021/11/02 10:37:46;;;;;;;148.00;76.90;;;;;;;;;;4419373;32;20253;-54
2021/11/02 10:40:23;;;;;;;93.07;56.07;;;;;;;;;;4429734;32;20577;-55
2021/11/02 10:43:24;;;;;;;119.97;65.07;;;;;;;;;;4433887;32;20304;-54
2021/11/02 10:46:02;;;;;;;86.83;53.47;;;;;;;;;;4419610;32;20232;-55
2021/11/02 10:48:40;;;;;;;89.80;56.30;;;;;;;;;;4434746;32;20635;-53
2021/11/02 10:51:09;;;;;;;148.80;81.27;;;;;;;;;;4434529;32;20301;-55
2021/11/02 10:53:45;;;;;;;98.77;55.47;;;;;;;;;;4434552;32;20197;-55
2021/11/02 10:56:29;;;;;;;81.33;49.77;;;;;;;;;;4434361;32;20566;-54
2021/11/02 10:58:59;;;;;;;73.23;47.50;;;;;;;;;;4434401;32;20209;-54
2021/11/02 11:01:30;;;;;;;69.97;46.70;;;;;;;;;;4417751;32;20264;-54
2021/11/02 11:03:59;;;;;;;79.43;48.33;;;;;;;;;;4419171;32;20227;-54
2021/11/02 11:06:27;;;;;;;58.97;36.47;;;;;;;;;;4429175;32;20266;-54
2021/11/02 11:08:55;;;;;;;52.13;30.80;;;;;;;;;;4434024;32;20675;-55
2021/11/02 11:11:25;;;;;;;53.27;34.63;;;;;;;;;;4433922;32;20251;-54
2021/11/02 11:13:56;;;;;;;48.70;35.00;;;;;;;;;;4433971;32;20216;-55
2021/11/02 11:16:24;;;;;;;49.57;32.13;;;;;;;;;;4433853;32;20284;-54
2021/11/02 11:19:05;;;;;;;46.33;31.50;;;;;;;;;;4432907;32;20216;-54
2021/11/02 11:21:34;;;;;;;47.03;27.23;;;;;;;;;;4432628;32;20225;-54
2021/11/02 11:24:12;;;;;;;36.60;26.97;;;;;;;;;;4432931;32;20586;-54
2021/11/02 11:26:47;;;;;;;37.57;27.73;;;;;;;;;;4434269;32;20273;-55
2021/11/02 11:29:19;;;;;;;41.07;26.70;;;;;;;;;;4434458;32;20321;-54
2021/11/02 11:31:47;;;;;;;40.13;26.20;;;;;;;;;;4434073;32;20294;-55
2021/11/02 11:34:15;;;;;;;55.67;34.83;;;;;;;;;;4433846;32;20236;-54
2021/11/02 11:36:48;;;;;;;39.97;27.40;;;;;;;;;;4434043;32;20266;-56
2021/11/02 11:39:23;;;;;;;40.13;23.70;;;;;;;;;;4434163;32;20314;-55
2021/11/02 11:41:51;;;;;;;29.97;19.77;;;;;;;;;;4433999;32;20240;-55
2021/11/02 11:44:18;;;;;;;26.23;18.00;;;;;;;;;;4433920;32;20209;-56
2021/11/02 11:46:46;;;;;;;31.27;19.17;;;;;;;;;;4434045;32;20248;-55
2021/11/02 11:49:23;;;;;;;29.27;20.50;;;;;;;;;;4433119;32;20239;-56
2021/11/02 11:52:00;;;;;;;35.03;25.30;;;;;;;;;;4433033;32;20347;-55
2021/11/02 11:54:47;;;;;;;29.47;20.20;;;;;;;;;;4433894;32;20255;-56
2021/11/02 11:57:16;;;;;;;28.87;19.23;;;;;;;;;;4426265;32;20287;-56
2021/11/02 11:59:46;;;;;;;35.43;22.37;;;;;;;;;;4433816;32;20217;-54
2021/11/02 12:02:30;;;;;;;41.83;27.17;;;;;;;;;;4433922;32;20280;-55
2021/11/02 12:05:04;;;;;;;36.77;24.57;;;;;;;;;;4432980;32;20221;-56
2021/11/02 12:07:54;;;;;;;42.27;25.73;;;;;;;;;;4433062;32;20352;-55
2021/11/02 12:10:26;;;;;;;43.13;26.73;;;;;;;;;;4434268;32;20312;-56
2021/11/02 12:12:55;;;;;;;37.83;23.83;;;;;;;;;;4432967;32;20228;-55
2021/11/02 12:15:22;;;;;;;32.03;21.40;;;;;;;;;;4432312;32;20280;-56
2021/11/02 12:17:51;;;;;;;40.73;23.47;;;;;;;;;;4433215;32;20254;-55
2021/11/02 12:20:18;;;;;;;34.97;24.77;;;;;;;;;;4433395;32;20225;-56
2021/11/02 12:22:53;;;;;;;36.83;24.60;;;;;;;;;;4433723;32;20586;-55
2021/11/02 12:25:22;;;;;;;43.00;27.27;;;;;;;;;;4433511;32;20854;-55
2021/11/02 12:27:49;;;;;;;37.10;24.63;;;;;;;;;;4438280;32;20233;-55
2021/11/02 12:30:22;;;;;;;38.07;24.47;;;;;;;;;;4437998;32;20371;-55
2021/11/02 12:32:56;;;;;;;32.50;24.00;;;;;;;;;;4438027;32;20645;-56
2021/11/02 12:35:41;;;;;;;34.60;24.73;;;;;;;;;;4437892;32;20275;-56
2021/11/02 12:38:08;;;;;;;30.13;23.13;;;;;;;;;;4437740;32;20661;-56
2021/11/02 12:40:36;;;;;;;32.73;23.10;;;;;;;;;;4435179;32;20344;-56
2021/11/02 12:43:02;;;;;;;32.73;21.00;;;;;;;;;;4436242;32;20588;-55
2021/11/02 12:45:38;;;;;;;32.57;20.43;;;;;;;;;;4436681;32;20315;-56
2021/11/02 12:48:09;;;;;;;26.93;20.03;;;;;;;;;;4436074;32;20270;-55
2021/11/02 12:50:37;;;;;;;24.93;18.30;;;;;;;;;;4437787;32;20225;-55
2021/11/02 12:53:04;;;;;;;32.97;19.40;;;;;;;;;;4438480;32;20569;-55
2021/11/02 12:55:32;;;;;;;27.70;17.67;;;;;;;;;;4439086;32;20251;-55
2021/11/02 12:58:07;;;;;;;19.40;12.60;;;;;;;;;;4436968;32;20244;-55
2021/11/02 13:00:43;;;;;;;16.03;12.20;;;;;;;;;;4427813;32;20220;-54
2021/11/02 13:03:15;;;;;;;22.03;13.10;;;;;;;;;;4421211;32;20236;-56
2021/11/02 13:05:41;;;;;;;24.53;17.00;;;;;;;;;;4422045;32;20713;-56
2021/11/02 13:08:12;;;;;;;24.43;18.60;;;;;;;;;;4421185;32;20314;-56
2021/11/02 13:10:39;;;;;;;29.43;19.57;;;;;;;;;;4421400;32;20237;-56
2021/11/02 13:13:10;;;;;;;26.73;18.93;;;;;;;;;;4421498;32;20313;-56
2021/11/02 13:15:51;;;;;;;31.13;18.97;;;;;;;;;;4426709;32;20205;-56
2021/11/02 13:18:39;;;;;;;30.00;20.80;;;;;;;;;;4437149;32;20268;-56
2021/11/02 13:21:06;;;;;;;29.13;20.03;;;;;;;;;;4437651;32;20590;-56
2021/11/02 13:23:40;;;;;;;27.43;18.70;;;;;;;;;;4437964;32;20239;-57
2021/11/02 13:26:14;;;;;;;28.23;18.90;;;;;;;;;;4435521;32;20811;-55
2021/11/02 13:28:40;;;;;;;31.27;21.40;;;;;;;;;;4437920;32;20291;-55
2021/11/02 13:31:07;;;;;;;31.23;20.00;;;;;;;;;;4437334;32;20288;-55
2021/11/02 13:33:33;;;;;;;26.83;18.33;;;;;;;;;;4436968;32;20240;-56
2021/11/02 13:36:00;;;;;;;28.77;18.50;;;;;;;;;;4436329;32;20326;-55
2021/11/02 13:38:35;;;;;;;28.07;18.37;;;;;;;;;;4432606;32;20266;-56
2021/11/02 13:41:06;;;;;;;26.77;17.80;;;;;;;;;;4434883;32;20274;-56
2021/11/02 13:43:38;;;;;;;24.00;17.53;;;;;;;;;;4435074;32;20261;-55
2021/11/02 13:46:06;;;;;;;31.10;17.47;;;;;;;;;;4434874;32;20256;-56
2021/11/02 13:48:33;;;;;;;26.40;15.53;;;;;;;;;;4434674;32;20668;-56
2021/11/02 13:51:00;;;;;;;22.20;14.20;;;;;;;;;;4433482;32;20790;-56
2021/11/02 13:53:27;;;;;;;21.00;15.87;;;;;;;;;;4434276;32;20276;-56
2021/11/02 13:55:53;;;;;;;19.60;13.77;;;;;;;;;;4434453;32;20602;-57
2021/11/02 13:58:19;;;;;;;25.97;17.27;;;;;;;;;;4433632;32;20336;-56
2021/11/02 14:00:45;;;;;;;23.83;16.00;;;;;;;;;;4422802;32;20326;-57
2021/11/02 14:03:16;;;;;;;27.80;18.63;;;;;;;;;;4418157;32;20237;-56
2021/11/02 14:05:45;;;;;;;39.23;23.33;;;;;;;;;;4419094;32;20197;-57
2021/11/02 14:08:12;;;;;;;57.53;31.30;;;;;;;;;;4417897;32;20641;-57
2021/11/02 14:10:53;;;;;;;30.47;20.80;;;;;;;;;;4419074;32;20730;-58
2021/11/02 14:13:39;;;;;;;28.07;16.37;;;;;;;;;;4425542;32;20303;-57
2021/11/02 14:16:05;;;;;;;26.77;17.30;;;;;;;;;;4434165;32;20333;-58
2021/11/02 14:18:34;;;;;;;24.70;19.03;;;;;;;;;;4433814;32;20733;-56
2021/11/02 14:21:00;;;;;;;40.93;22.70;;;;;;;;;;4433816;32;20370;-56
2021/11/02 14:23:31;;;;;;;37.70;21.83;;;;;;;;;;4433041;32;20352;-57
2021/11/02 14:26:16;;;;;;;39.20;24.03;;;;;;;;;;4432888;32;20768;-57
2021/11/02 14:28:46;;;;;;;38.10;21.83;;;;;;;;;;4433285;32;20217;-57
2021/11/02 14:31:33;;;;;;;30.63;20.17;;;;;;;;;;4434420;32;20671;-57
2021/11/02 14:34:00;;;;;;;31.03;17.97;;;;;;;;;;4434373;32;20619;-57
2021/11/02 14:36:38;;;;;;;26.73;18.23;;;;;;;;;;4434208;32;20332;-56
2021/11/02 14:39:08;;;;;;;30.30;19.10;;;;;;;;;;4434116;32;20293;-57
2021/11/02 14:41:36;;;;;;;31.27;19.10;;;;;;;;;;4433033;32;20435;-57
2021/11/02 14:44:14;;;;;;;36.33;21.07;;;;;;;;;;4433033;32;20209;-58
2021/11/02 14:46:59;;;;;;;34.67;20.17;;;;;;;;;;4430711;32;20472;-57
2021/11/02 14:49:30;;;;;;;26.20;18.23;;;;;;;;;;4430462;32;20244;-57
2021/11/02 14:52:00;;;;;;;31.33;18.57;;;;;;;;;;4430643;32;20280;-57
2021/11/02 14:54:29;;;;;;;23.83;16.17;;;;;;;;;;4429502;32;20268;-56
2021/11/02 14:57:14;;;;;;;28.07;18.23;;;;;;;;;;4432535;32;20287;-57
2021/11/02 15:00:00;;;;;;;29.20;19.60;;;;;;;;;;4433918;32;20291;-56
2021/11/02 15:02:35;;;;;;;32.30;20.47;;;;;;;;;;4433298;32;20241;-57
2021/11/02 15:05:06;;;;;;;40.07;22.07;;;;;;;;;;4433745;32;20244;-58
2021/11/02 15:07:36;;;;;;;39.17;21.90;;;;;;;;;;4433801;32;20265;-57
2021/11/02 15:10:06;;;;;;;42.27;27.23;;;;;;;;;;4431728;32;20609;-57
2021/11/02 15:12:32;;;;;;;46.77;26.90;;;;;;;;;;4433572;32;20264;-58
2021/11/02 15:14:58;;;;;;;33.43;21.83;;;;;;;;;;4433803;32;20415;-57
2021/11/02 15:17:24;;;;;;;30.80;21.37;;;;;;;;;;4433102;32;20623;-57
2021/11/02 15:19:50;;;;;;;37.60;23.93;;;;;;;;;;4433528;32;20339;-56
2021/11/02 15:22:21;;;;;;;32.83;23.77;;;;;;;;;;4432342;32;20233;-57
2021/11/02 15:24:55;;;;;;;36.40;22.10;;;;;;;;;;4432078;32;20376;-57
2021/11/02 15:27:25;;;;;;;35.17;24.43;;;;;;;;;;4433344;32;20245;-57
2021/11/02 15:30:05;;;;;;;50.93;31.33;;;;;;;;;;4433273;32;20521;-57
2021/11/02 15:32:42;;;;;;;53.50;31.33;;;;;;;;;;4431938;32;20291;-58
2021/11/02 15:35:14;;;;;;;53.67;29.20;;;;;;;;;;4433440;32;20287;-56
2021/11/02 15:37:44;;;;;;;49.63;30.60;;;;;;;;;;4432187;32;20639;-56
2021/11/02 15:40:12;;;;;;;60.17;35.20;;;;;;;;;;4433054;32;20303;-56
2021/11/02 15:42:42;;;;;;;62.50;36.83;;;;;;;;;;4433256;32;20249;-57
2021/11/02 15:45:47;;;;;;;65.57;38.20;;;;;;;;;;4432839;32;20240;-57
2021/11/02 15:48:15;;;;;;;70.60;41.90;;;;;;;;;;4433024;32;20659;-57
2021/11/02 15:50:50;;;;;;;59.97;37.43;;;;;;;;;;4433007;32;20239;-57
2021/11/02 15:53:22;;;;;;;65.87;43.33;;;;;;;;;;4431648;32;20266;-57
2021/11/02 15:55:48;;;;;;;67.97;38.17;;;;;;;;;;4431311;32;20266;-56
2021/11/02 15:58:14;;;;;;;58.77;38.17;;;;;;;;;;4431667;32;20315;-56
2021/11/02 16:00:42;;;;;;;69.03;38.87;;;;;;;;;;4432266;32;20295;-58
2021/11/02 16:03:12;;;;;;;72.07;39.83;;;;;;;;;;4432894;32;20224;-56
2021/11/02 16:05:38;;;;;;;58.43;38.40;;;;;;;;;;4432490;32;20234;-57
2021/11/02 16:08:24;;;;;;;81.47;45.33;;;;;;;;;;4432164;32;20681;-57
2021/11/02 16:10:52;;;;;;;76.83;45.77;;;;;;;;;;4425467;32;20277;-56
2021/11/02 16:13:24;;;;;;;78.20;45.73;;;;;;;;;;4431010;32;20225;-56
2021/11/02 16:15:49;;;;;;;71.53;42.83;;;;;;;;;;4419887;32;20771;-56
2021/11/02 16:18:24;;;;;;;60.43;37.73;;;;;;;;;;4422713;32;20519;-56
2021/11/02 16:20:51;;;;;;;55.87;34.03;;;;;;;;;;4431455;32;20291;-55
2021/11/02 16:23:19;;;;;;;55.23;30.77;;;;;;;;;;4431585;32;20319;-56
2021/11/02 16:25:48;;;;;;;61.40;40.83;;;;;;;;;;4431976;32;20244;-57
2021/11/02 16:28:30;;;;;;;67.10;41.47;;;;;;;;;;4432265;32;20777;-58
2021/11/02 16:30:57;;;;;;;104.23;59.97;;;;;;;;;;4430528;32;20672;-56
2021/11/02 16:33:45;;;;;;;100.80;59.73;;;;;;;;;;4431398;32;20328;-56
2021/11/02 16:36:24;;;;;;;98.97;53.90;;;;;;;;;;4429778;32;20292;-56
2021/11/02 16:39:20;;;;;;;77.17;46.93;;;;;;;;;;4431569;32;20688;-55
2021/11/02 16:41:54;;;;;;;93.03;52.73;;;;;;;;;;4425323;32;20558;-54
2021/11/02 16:44:38;;;;;;;67.10;40.07;;;;;;;;;;4428848;32;20676;-55
2021/11/02 16:47:09;;;;;;;74.10;43.23;;;;;;;;;;4432259;32;20284;-56
2021/11/02 16:49:36;;;;;;;142.43;78.73;;;;;;;;;;4432466;32;20271;-56
2021/11/02 16:52:04;;;;;;;93.33;54.43;;;;;;;;;;4430275;32;20335;-56
2021/11/02 16:54:43;;;;;;;106.23;57.17;;;;;;;;;;4431900;32;20288;-56
2021/11/02 16:57:17;;;;;;;119.20;67.17;;;;;;;;;;4431899;32;20582;-56
2021/11/02 16:59:51;;;;;;;107.43;62.90;;;;;;;;;;4429713;32;20280;-56
2021/11/02 17:02:24;;;;;;;180.67;100.83;;;;;;;;;;4432108;32;20228;-56
2021/11/02 17:04:59;;;;;;;109.07;58.50;;;;;;;;;;4430344;32;20315;-56
2021/11/02 17:07:33;;;;;;;110.30;61.00;;;;;;;;;;4425419;32;20258;-56
2021/11/02 17:10:23;;;;;;;155.83;92.00;;;;;;;;;;4432404;32;20289;-57
2021/11/02 17:13:07;;;;;;;118.40;70.63;;;;;;;;;;4419687;32;20326;-56
2021/11/02 17:15:35;;;;;;;108.90;59.23;;;;;;;;;;4426257;32;20657;-55
2021/11/02 17:18:04;;;;;;;99.70;55.70;;;;;;;;;;4434880;32;20261;-55
2021/11/02 17:20:30;;;;;;;151.70;89.00;;;;;;;;;;4434622;32;20287;-56
2021/11/02 17:22:56;;;;;;;157.63;88.47;;;;;;;;;;4433751;32;20266;-56
2021/11/02 17:25:23;;;;;;;154.10;86.60;;;;;;;;;;4432725;32;20311;-56
2021/11/02 17:27:50;;;;;;;170.03;101.40;;;;;;;;;;4432858;32;20271;-57
2021/11/02 17:30:22;;;;;;;191.37;105.47;;;;;;;;;;4433015;32;20238;-55
2021/11/02 17:32:48;;;;;;;180.20;103.43;;;;;;;;;;4432452;32;20262;-55
2021/11/02 17:35:15;;;;;;;169.43;103.20;;;;;;;;;;4435721;32;20340;-57
2021/11/02 17:37:44;;;;;;;173.87;98.00;;;;;;;;;;4434458;32;20286;-56
2021/11/02 17:40:10;;;;;;;170.00;98.93;;;;;;;;;;4433961;32;20365;-56
2021/11/02 17:42:37;;;;;;;154.60;88.80;;;;;;;;;;4432536;32;20240;-55
2021/11/02 17:45:03;;;;;;;146.63;83.77;;;;;;;;;;4433616;32;20716;-56
2021/11/02 17:47:29;;;;;;;140.57;80.80;;;;;;;;;;4433976;32;20228;-56
2021/11/02 17:49:54;;;;;;;118.50;68.47;;;;;;;;;;4420318;32;20346;-55
2021/11/02 17:52:20;;;;;;;110.53;66.40;;;;;;;;;;4435078;32;20256;-56
2021/11/02 17:54:46;;;;;;;164.50;85.17;;;;;;;;;;4435074;32;20283;-56
2021/11/02 17:57:11;;;;;;;120.73;68.33;;;;;;;;;;4434617;32;20771;-56
2021/11/02 17:59:39;;;;;;;137.27;73.67;;;;;;;;;;4432988;32;20316;-57
2021/11/02 18:02:05;;;;;;;138.97;78.43;;;;;;;;;;4434391;32;20236;-56
2021/11/02 18:04:33;;;;;;;135.70;78.40;;;;;;;;;;4434759;32;20295;-56
2021/11/02 18:06:59;;;;;;;125.07;71.33;;;;;;;;;;4434707;32;20251;-56
2021/11/02 18:09:25;;;;;;;133.63;73.77;;;;;;;;;;4434741;32;20226;-56
2021/11/02 18:11:51;;;;;;;131.63;71.37;;;;;;;;;;4434581;32;20259;-56
2021/11/02 18:14:17;;;;;;;137.63;71.73;;;;;;;;;;4434386;32;20735;-55
2021/11/02 18:16:44;;;;;;;134.30;71.83;;;;;;;;;;4434683;32;20295;-55
2021/11/02 18:19:12;;;;;;;116.37;66.60;;;;;;;;;;4434472;32;20292;-56
2021/11/02 18:21:38;;;;;;;134.87;70.47;;;;;;;;;;4434458;32;20313;-56
2021/11/02 18:24:05;;;;;;;130.80;72.77;;;;;;;;;;4429111;32;20577;-56
2021/11/02 18:26:32;;;;;;;136.00;72.53;;;;;;;;;;4434280;32;20296;-56
2021/11/02 18:28:58;;;;;;;132.90;71.00;;;;;;;;;;4434415;32;20275;-56
2021/11/02 18:31:26;;;;;;;129.63;76.50;;;;;;;;;;4431049;32;20221;-55
2021/11/02 18:33:52;;;;;;;151.93;81.73;;;;;;;;;;4431108;32;20662;-55
2021/11/02 18:36:20;;;;;;;189.37;107.33;;;;;;;;;;4432408;32;20723;-55
2021/11/02 18:38:46;;;;;;;182.03;100.43;;;;;;;;;;4431444;32;20232;-55
2021/11/02 18:41:13;;;;;;;246.33;126.43;;;;;;;;;;4433425;32;20354;-56
2021/11/02 18:43:41;;;;;;;246.17;133.33;;;;;;;;;;4432246;32;20272;-57
2021/11/02 18:46:07;;;;;;;195.70;109.57;;;;;;;;;;4432209;32;20530;-56
2021/11/02 18:48:34;;;;;;;198.33;111.87;;;;;;;;;;4433493;32;20331;-55
2021/11/02 18:51:00;;;;;;;188.00;110.53;;;;;;;;;;4432961;32;20331;-56
2021/11/02 18:53:27;;;;;;;200.73;111.13;;;;;;;;;;4432020;32;20350;-56
2021/11/02 18:55:53;;;;;;;189.47;113.77;;;;;;;;;;4433004;32;20307;-57
2021/11/02 18:58:19;;;;;;;252.63;136.63;;;;;;;;;;4432759;32;20241;-56
2021/11/02 19:00:45;;;;;;;276.80;137.37;;;;;;;;;;4431191;32;20287;-55
2021/11/02 19:03:12;;;;;;;236.03;128.23;;;;;;;;;;4430605;32;20298;-56
2021/11/02 19:05:40;;;;;;;239.17;127.40;;;;;;;;;;4432692;32;20703;-56
2021/11/02 19:08:12;;;;;;;230.67;129.10;;;;;;;;;;4432249;32;20252;-55
2021/11/02 19:10:38;;;;;;;228.60;122.30;;;;;;;;;;4433419;32;20236;-56
2021/11/02 19:13:04;;;;;;;248.87;126.97;;;;;;;;;;4432846;32;20264;-56
2021/11/02 19:15:30;;;;;;;234.43;128.73;;;;;;;;;;4432666;32;20379;-57
2021/11/02 19:17:56;;;;;;;234.03;132.07;;;;;;;;;;4432685;32;20236;-56
2021/11/02 19:20:22;;;;;;;246.20;134.97;;;;;;;;;;4431406;32;20334;-56
2021/11/02 19:22:48;;;;;;;227.17;129.07;;;;;;;;;;4431573;32;20262;-56
2021/11/02 19:25:15;;;;;;;232.80;127.30;;;;;;;;;;4432954;32;20729;-56
2021/11/02 19:27:40;;;;;;;214.90;121.53;;;;;;;;;;4433071;32;20775;-56
2021/11/02 19:30:07;;;;;;;217.13;122.57;;;;;;;;;;4433169;32;20303;-57
2021/11/02 19:32:33;;;;;;;216.40;118.37;;;;;;;;;;4431562;32;20316;-56
2021/11/02 19:34:58;;;;;;;220.50;117.83;;;;;;;;;;4431767;32;20652;-56
2021/11/02 19:37:24;;;;;;;211.20;118.50;;;;;;;;;;4432611;32;20267;-56